sensor_id;sensor_type;location;lat;lon;timestamp;temperature;humidity
30473;DHT22;17263;48.160;11.452;2023-04-03T00:01:18;3.40;99.90
30473;DHT22;17263;48.160;11.452;2023-04-03T00:03:44;3.30;99.90
30473;DHT22;17263;48.160;11.452;2023-04-03T00:06:11;3.30;99.90
30473;DHT22;17263;48.160;11.452;2023-04-03T00:08:38;3.30;99.90
30473;DHT22;17263;48.160;11.452;2023-04-03T00:11:05;3.30;99.90
30473;DHT22;17263;48.160;11.452;2023-04-03T00:13:32;3.30;99.90
30473;DHT22;17263;48.160;11.452;2023-04-03T00:15:59;3.30;99.90
30473;DHT22;17263;48.160;11.452;2023-04-03T00:18:25;3.40;99.90
30473;DHT22;17263;48.160;11.452;2023-04-03T00:20:51;3.50;99.90
30473;DHT22;17263;48.160;11.452;2023-04-03T00:23:17;3.50;99.90
30473;DHT22;17263;48.160;11.452;2023-04-03T00:25:43;3.50;99.90
30473;DHT22;17263;48.160;11.452;2023-04-03T00:28:10;3.40;99.90
30473;DHT22;17263;48.160;11.452;2023-04-03T00:30:36;3.50;99.90
30473;DHT22;17263;48.160;11.452;2023-04-03T00:33:02;3.30;99.90
30473;DHT22;17263;48.160;11.452;2023-04-03T00:35:28;3.30;99.90
30473;DHT22;17263;48.160;11.452;2023-04-03T00:37:55;3.30;99.90
30473;DHT22;17263;48.160;11.452;2023-04-03T00:40:23;3.30;99.90
30473;DHT22;17263;48.160;11.452;2023-04-03T00:42:54;3.30;99.90
30473;DHT22;17263;48.160;11.452;2023-04-03T00:45:29;3.20;99.90
30473;DHT22;17263;48.160;11.452;2023-04-03T00:47:56;3.20;99.90
30473;DHT22;17263;48.160;11.452;2023-04-03T00:50:22;3.20;99.90
30473;DHT22;17263;48.160;11.452;2023-04-03T00:52:48;3.10;99.90
30473;DHT22;17263;48.160;11.452;2023-04-03T00:55:15;3.10;99.90
30473;DHT22;17263;48.160;11.452;2023-04-03T00:57:42;3.10;99.90
30473;DHT22;17263;48.160;11.452;2023-04-03T01:00:12;3.10;99.90
30473;DHT22;17263;48.160;11.452;2023-04-03T01:02:40;3.10;99.90
30473;DHT22;17263;48.160;11.452;2023-04-03T01:05:09;3.10;99.90
30473;DHT22;17263;48.160;11.452;2023-04-03T01:07:36;3.10;99.90
30473;DHT22;17263;48.160;11.452;2023-04-03T01:10:07;3.10;99.90
30473;DHT22;17263;48.160;11.452;2023-04-03T01:12:38;3.20;99.90
30473;DHT22;17263;48.160;11.452;2023-04-03T01:15:16;3.20;99.90
30473;DHT22;17263;48.160;11.452;2023-04-03T01:17:54;3.10;99.90
30473;DHT22;17263;48.160;11.452;2023-04-03T01:20:42;3.10;99.90
30473;DHT22;17263;48.160;11.452;2023-04-03T01:25:42;3.10;99.90
30473;DHT22;17263;48.160;11.452;2023-04-03T01:28:33;3.00;99.90
30473;DHT22;17263;48.160;11.452;2023-04-03T01:31:02;3.00;99.90
30473;DHT22;17263;48.160;11.452;2023-04-03T01:33:31;3.10;99.90
30473;DHT22;17263;48.160;11.452;2023-04-03T01:35:57;3.00;99.90
30473;DHT22;17263;48.160;11.452;2023-04-03T01:38:23;3.00;99.90
30473;DHT22;17263;48.160;11.452;2023-04-03T01:40:50;3.00;99.90
30473;DHT22;17263;48.160;11.452;2023-04-03T01:43:16;3.00;99.90
30473;DHT22;17263;48.160;11.452;2023-04-03T01:45:42;3.00;99.90
30473;DHT22;17263;48.160;11.452;2023-04-03T01:48:08;3.00;99.90
30473;DHT22;17263;48.160;11.452;2023-04-03T01:50:34;3.00;99.90
30473;DHT22;17263;48.160;11.452;2023-04-03T01:53:00;3.00;99.90
30473;DHT22;17263;48.160;11.452;2023-04-03T01:55:26;3.00;99.90
30473;DHT22;17263;48.160;11.452;2023-04-03T01:57:52;3.00;99.90
30473;DHT22;17263;48.160;11.452;2023-04-03T02:00:18;3.00;99.90
30473;DHT22;17263;48.160;11.452;2023-04-03T02:02:44;3.00;99.90
30473;DHT22;17263;48.160;11.452;2023-04-03T02:05:11;3.00;99.90
30473;DHT22;17263;48.160;11.452;2023-04-03T02:07:37;3.00;99.90
30473;DHT22;17263;48.160;11.452;2023-04-03T02:10:03;3.00;99.90
30473;DHT22;17263;48.160;11.452;2023-04-03T02:12:29;3.00;99.90
30473;DHT22;17263;48.160;11.452;2023-04-03T02:14:55;3.10;99.90
30473;DHT22;17263;48.160;11.452;2023-04-03T02:17:21;3.10;99.90
30473;DHT22;17263;48.160;11.452;2023-04-03T02:19:47;3.10;99.90
30473;DHT22;17263;48.160;11.452;2023-04-03T02:22:13;3.10;99.90
30473;DHT22;17263;48.160;11.452;2023-04-03T02:24:39;3.10;99.90
30473;DHT22;17263;48.160;11.452;2023-04-03T02:27:06;3.10;99.90
30473;DHT22;17263;48.160;11.452;2023-04-03T02:29:32;3.10;99.90
30473;DHT22;17263;48.160;11.452;2023-04-03T02:31:58;3.00;99.90
30473;DHT22;17263;48.160;11.452;2023-04-03T02:34:24;3.00;99.90
30473;DHT22;17263;48.160;11.452;2023-04-03T02:36:50;3.10;99.90
30473;DHT22;17263;48.160;11.452;2023-04-03T02:39:16;3.10;99.90
30473;DHT22;17263;48.160;11.452;2023-04-03T02:41:42;3.10;99.90
30473;DHT22;17263;48.160;11.452;2023-04-03T02:44:10;3.10;99.90
30473;DHT22;17263;48.160;11.452;2023-04-03T02:46:36;3.10;99.90
30473;DHT22;17263;48.160;11.452;2023-04-03T02:49:03;3.10;99.90
30473;DHT22;17263;48.160;11.452;2023-04-03T02:51:29;3.10;99.90
30473;DHT22;17263;48.160;11.452;2023-04-03T02:53:56;3.10;99.90
30473;DHT22;17263;48.160;11.452;2023-04-03T02:56:22;3.10;99.90
30473;DHT22;17263;48.160;11.452;2023-04-03T02:58:48;3.10;99.90
30473;DHT22;17263;48.160;11.452;2023-04-03T03:01:14;3.10;99.90
30473;DHT22;17263;48.160;11.452;2023-04-03T03:03:40;3.20;99.90
30473;DHT22;17263;48.160;11.452;2023-04-03T03:06:11;3.10;99.90
30473;DHT22;17263;48.160;11.452;2023-04-03T03:08:38;3.20;99.90
30473;DHT22;17263;48.160;11.452;2023-04-03T03:11:04;3.20;99.90
30473;DHT22;17263;48.160;11.452;2023-04-03T03:13:31;3.20;99.90
30473;DHT22;17263;48.160;11.452;2023-04-03T03:15:58;3.20;99.90
30473;DHT22;17263;48.160;11.452;2023-04-03T03:18:24;3.30;99.90
30473;DHT22;17263;48.160;11.452;2023-04-03T03:20:54;3.20;99.90
30473;DHT22;17263;48.160;11.452;2023-04-03T03:23:22;3.10;99.90
30473;DHT22;17263;48.160;11.452;2023-04-03T03:25:48;3.10;99.90
30473;DHT22;17263;48.160;11.452;2023-04-03T03:28:15;3.10;99.90
30473;DHT22;17263;48.160;11.452;2023-04-03T03:30:41;3.20;99.90
30473;DHT22;17263;48.160;11.452;2023-04-03T03:33:07;3.20;99.90
30473;DHT22;17263;48.160;11.452;2023-04-03T03:35:33;3.20;99.90
30473;DHT22;17263;48.160;11.452;2023-04-03T03:37:59;3.20;99.90
30473;DHT22;17263;48.160;11.452;2023-04-03T03:40:25;3.20;99.90
30473;DHT22;17263;48.160;11.452;2023-04-03T03:42:51;3.20;99.90
30473;DHT22;17263;48.160;11.452;2023-04-03T03:45:17;3.20;99.90
30473;DHT22;17263;48.160;11.452;2023-04-03T03:47:43;3.30;99.90
30473;DHT22;17263;48.160;11.452;2023-04-03T03:50:09;3.30;99.90
30473;DHT22;17263;48.160;11.452;2023-04-03T03:52:35;3.30;99.90
30473;DHT22;17263;48.160;11.452;2023-04-03T03:55:02;3.30;99.90
30473;DHT22;17263;48.160;11.452;2023-04-03T03:57:28;3.30;99.90
30473;DHT22;17263;48.160;11.452;2023-04-03T03:59:54;3.30;99.90
30473;DHT22;17263;48.160;11.452;2023-04-03T04:02:20;3.30;99.90
30473;DHT22;17263;48.160;11.452;2023-04-03T04:04:46;3.30;99.90
30473;DHT22;17263;48.160;11.452;2023-04-03T04:07:12;3.30;99.90
30473;DHT22;17263;48.160;11.452;2023-04-03T04:09:38;3.30;99.90
30473;DHT22;17263;48.160;11.452;2023-04-03T04:12:04;3.20;99.90
30473;DHT22;17263;48.160;11.452;2023-04-03T04:14:30;3.30;99.90
30473;DHT22;17263;48.160;11.452;2023-04-03T04:16:57;3.20;99.90
30473;DHT22;17263;48.160;11.452;2023-04-03T04:19:23;3.30;99.90
30473;DHT22;17263;48.160;11.452;2023-04-03T04:21:49;3.30;99.90
30473;DHT22;17263;48.160;11.452;2023-04-03T04:24:15;3.30;99.90
30473;DHT22;17263;48.160;11.452;2023-04-03T04:26:41;3.30;99.90
30473;DHT22;17263;48.160;11.452;2023-04-03T04:29:09;3.30;99.90
30473;DHT22;17263;48.160;11.452;2023-04-03T04:31:36;3.30;99.90
30473;DHT22;17263;48.160;11.452;2023-04-03T04:34:02;3.30;99.90
30473;DHT22;17263;48.160;11.452;2023-04-03T04:36:28;3.30;99.90
30473;DHT22;17263;48.160;11.452;2023-04-03T04:38:54;3.30;99.90
30473;DHT22;17263;48.160;11.452;2023-04-03T04:41:21;3.30;99.90
30473;DHT22;17263;48.160;11.452;2023-04-03T04:43:48;3.40;99.90
30473;DHT22;17263;48.160;11.452;2023-04-03T04:46:15;3.40;99.90
30473;DHT22;17263;48.160;11.452;2023-04-03T04:48:41;3.30;99.90
30473;DHT22;17263;48.160;11.452;2023-04-03T04:51:07;3.40;99.90
30473;DHT22;17263;48.160;11.452;2023-04-03T04:53:33;3.30;99.90
30473;DHT22;17263;48.160;11.452;2023-04-03T04:55:59;3.30;99.90
30473;DHT22;17263;48.160;11.452;2023-04-03T04:58:25;3.30;99.90
30473;DHT22;17263;48.160;11.452;2023-04-03T05:00:59;3.40;99.90
30473;DHT22;17263;48.160;11.452;2023-04-03T05:03:25;3.40;99.90
30473;DHT22;17263;48.160;11.452;2023-04-03T05:05:51;3.40;99.90
30473;DHT22;17263;48.160;11.452;2023-04-03T05:08:17;3.40;99.90
30473;DHT22;17263;48.160;11.452;2023-04-03T05:10:45;3.30;99.90
30473;DHT22;17263;48.160;11.452;2023-04-03T05:13:12;3.40;99.90
30473;DHT22;17263;48.160;11.452;2023-04-03T05:15:38;3.30;99.90
30473;DHT22;17263;48.160;11.452;2023-04-03T05:18:04;3.50;99.90
30473;DHT22;17263;48.160;11.452;2023-04-03T05:20:31;3.40;99.90
30473;DHT22;17263;48.160;11.452;2023-04-03T05:22:57;3.40;99.90
30473;DHT22;17263;48.160;11.452;2023-04-03T05:25:24;3.40;99.90
30473;DHT22;17263;48.160;11.452;2023-04-03T05:27:50;3.40;99.90
30473;DHT22;17263;48.160;11.452;2023-04-03T05:30:16;3.40;99.90
30473;DHT22;17263;48.160;11.452;2023-04-03T05:32:42;3.40;99.90
30473;DHT22;17263;48.160;11.452;2023-04-03T05:35:09;3.40;99.90
30473;DHT22;17263;48.160;11.452;2023-04-03T05:37:35;3.50;99.90
30473;DHT22;17263;48.160;11.452;2023-04-03T05:40:03;3.50;99.90
30473;DHT22;17263;48.160;11.452;2023-04-03T05:42:29;3.50;99.90
30473;DHT22;17263;48.160;11.452;2023-04-03T05:44:55;3.50;99.90
30473;DHT22;17263;48.160;11.452;2023-04-03T05:47:21;3.50;99.90
30473;DHT22;17263;48.160;11.452;2023-04-03T05:49:47;3.50;99.90
30473;DHT22;17263;48.160;11.452;2023-04-03T05:52:24;3.60;99.90
30473;DHT22;17263;48.160;11.452;2023-04-03T05:54:51;3.50;99.90
30473;DHT22;17263;48.160;11.452;2023-04-03T05:57:17;3.50;99.90
30473;DHT22;17263;48.160;11.452;2023-04-03T05:59:45;3.50;99.90
30473;DHT22;17263;48.160;11.452;2023-04-03T06:02:13;3.50;99.90
30473;DHT22;17263;48.160;11.452;2023-04-03T06:04:39;3.50;99.90
30473;DHT22;17263;48.160;11.452;2023-04-03T06:07:05;3.50;99.90
30473;DHT22;17263;48.160;11.452;2023-04-03T06:09:31;3.50;99.90
30473;DHT22;17263;48.160;11.452;2023-04-03T06:11:58;3.60;99.90
30473;DHT22;17263;48.160;11.452;2023-04-03T06:14:25;3.60;99.90
30473;DHT22;17263;48.160;11.452;2023-04-03T06:16:52;3.60;99.90
30473;DHT22;17263;48.160;11.452;2023-04-03T06:19:18;3.60;99.90
30473;DHT22;17263;48.160;11.452;2023-04-03T06:21:44;3.60;99.90
30473;DHT22;17263;48.160;11.452;2023-04-03T06:24:15;3.70;99.90
30473;DHT22;17263;48.160;11.452;2023-04-03T06:26:41;3.70;99.90
30473;DHT22;17263;48.160;11.452;2023-04-03T06:29:08;3.70;99.90
30473;DHT22;17263;48.160;11.452;2023-04-03T06:31:34;3.70;99.90
30473;DHT22;17263;48.160;11.452;2023-04-03T06:34:02;3.70;99.90
30473;DHT22;17263;48.160;11.452;2023-04-03T06:36:29;3.70;99.90
30473;DHT22;17263;48.160;11.452;2023-04-03T06:38:55;3.80;99.90
30473;DHT22;17263;48.160;11.452;2023-04-03T06:41:21;3.90;99.90
30473;DHT22;17263;48.160;11.452;2023-04-03T06:43:48;3.90;99.90
30473;DHT22;17263;48.160;11.452;2023-04-03T06:46:19;3.90;99.90
30473;DHT22;17263;48.160;11.452;2023-04-03T06:48:46;4.00;99.90
30473;DHT22;17263;48.160;11.452;2023-04-03T06:53:50;3.90;99.90
30473;DHT22;17263;48.160;11.452;2023-04-03T06:56:17;4.00;99.90
30473;DHT22;17263;48.160;11.452;2023-04-03T06:58:43;4.10;99.90
30473;DHT22;17263;48.160;11.452;2023-04-03T07:01:12;4.20;99.90
30473;DHT22;17263;48.160;11.452;2023-04-03T07:03:38;4.20;99.90
30473;DHT22;17263;48.160;11.452;2023-04-03T07:06:05;4.30;99.90
30473;DHT22;17263;48.160;11.452;2023-04-03T07:08:33;4.40;99.90
30473;DHT22;17263;48.160;11.452;2023-04-03T07:11:00;4.50;99.90
30473;DHT22;17263;48.160;11.452;2023-04-03T07:13:26;4.60;99.90
30473;DHT22;17263;48.160;11.452;2023-04-03T07:15:52;4.70;99.90
30473;DHT22;17263;48.160;11.452;2023-04-03T07:18:18;4.70;99.90
30473;DHT22;17263;48.160;11.452;2023-04-03T07:20:44;4.80;99.90
30473;DHT22;17263;48.160;11.452;2023-04-03T07:23:11;4.80;99.90
30473;DHT22;17263;48.160;11.452;2023-04-03T07:25:48;4.80;99.90
30473;DHT22;17263;48.160;11.452;2023-04-03T07:28:16;4.90;99.90
30473;DHT22;17263;48.160;11.452;2023-04-03T07:30:47;4.90;99.90
30473;DHT22;17263;48.160;11.452;2023-04-03T07:33:14;5.00;99.90
30473;DHT22;17263;48.160;11.452;2023-04-03T07:35:41;5.00;99.90
30473;DHT22;17263;48.160;11.452;2023-04-03T07:38:09;5.00;99.90
30473;DHT22;17263;48.160;11.452;2023-04-03T07:40:36;5.00;99.90
30473;DHT22;17263;48.160;11.452;2023-04-03T07:43:02;5.10;99.90
30473;DHT22;17263;48.160;11.452;2023-04-03T07:45:29;5.10;99.90
30473;DHT22;17263;48.160;11.452;2023-04-03T07:47:55;5.10;99.90
30473;DHT22;17263;48.160;11.452;2023-04-03T07:50:21;5.20;99.90
30473;DHT22;17263;48.160;11.452;2023-04-03T07:52:48;5.20;99.90
30473;DHT22;17263;48.160;11.452;2023-04-03T07:55:14;5.10;99.90
30473;DHT22;17263;48.160;11.452;2023-04-03T07:57:40;5.10;99.90
30473;DHT22;17263;48.160;11.452;2023-04-03T08:00:07;5.10;99.90
30473;DHT22;17263;48.160;11.452;2023-04-03T08:02:34;5.00;99.90
30473;DHT22;17263;48.160;11.452;2023-04-03T08:05:00;5.10;99.90
30473;DHT22;17263;48.160;11.452;2023-04-03T08:07:26;5.10;99.90
30473;DHT22;17263;48.160;11.452;2023-04-03T08:09:53;5.00;99.90
30473;DHT22;17263;48.160;11.452;2023-04-03T08:12:19;5.00;99.90
30473;DHT22;17263;48.160;11.452;2023-04-03T08:14:45;5.00;99.90
30473;DHT22;17263;48.160;11.452;2023-04-03T08:17:11;5.10;99.90
30473;DHT22;17263;48.160;11.452;2023-04-03T08:19:38;5.20;99.90
30473;DHT22;17263;48.160;11.452;2023-04-03T08:22:05;5.20;99.90
30473;DHT22;17263;48.160;11.452;2023-04-03T08:24:32;5.30;99.90
30473;DHT22;17263;48.160;11.452;2023-04-03T08:26:59;5.30;99.90
30473;DHT22;17263;48.160;11.452;2023-04-03T08:29:25;5.30;99.90
30473;DHT22;17263;48.160;11.452;2023-04-03T08:31:51;5.30;99.90
30473;DHT22;17263;48.160;11.452;2023-04-03T08:34:18;5.30;99.90
30473;DHT22;17263;48.160;11.452;2023-04-03T08:36:45;5.40;99.90
30473;DHT22;17263;48.160;11.452;2023-04-03T08:39:12;5.40;99.90
30473;DHT22;17263;48.160;11.452;2023-04-03T08:41:40;5.40;99.90
30473;DHT22;17263;48.160;11.452;2023-04-03T08:47:22;5.30;99.90
30473;DHT22;17263;48.160;11.452;2023-04-03T08:49:59;5.30;99.90
30473;DHT22;17263;48.160;11.452;2023-04-03T08:52:41;5.30;99.90
30473;DHT22;17263;48.160;11.452;2023-04-03T08:55:24;5.20;99.90
30473;DHT22;17263;48.160;11.452;2023-04-03T08:58:01;5.20;99.90
30473;DHT22;17263;48.160;11.452;2023-04-03T09:00:32;5.30;99.90
30473;DHT22;17263;48.160;11.452;2023-04-03T09:03:00;5.30;99.90
30473;DHT22;17263;48.160;11.452;2023-04-03T09:05:40;5.40;99.90
30473;DHT22;17263;48.160;11.452;2023-04-03T09:10:40;5.50;99.90
30473;DHT22;17263;48.160;11.452;2023-04-03T09:13:30;5.60;99.90
30473;DHT22;17263;48.160;11.452;2023-04-03T09:16:02;5.50;99.90
30473;DHT22;17263;48.160;11.452;2023-04-03T09:18:35;5.60;99.90
30473;DHT22;17263;48.160;11.452;2023-04-03T09:21:19;5.50;99.90
30473;DHT22;17263;48.160;11.452;2023-04-03T09:23:53;5.50;99.90
30473;DHT22;17263;48.160;11.452;2023-04-03T09:26:28;5.50;99.90
30473;DHT22;17263;48.160;11.452;2023-04-03T09:29:00;5.50;99.90
30473;DHT22;17263;48.160;11.452;2023-04-03T09:31:36;5.40;99.90
30473;DHT22;17263;48.160;11.452;2023-04-03T09:34:07;5.40;99.90
30473;DHT22;17263;48.160;11.452;2023-04-03T09:36:40;5.60;99.90
30473;DHT22;17263;48.160;11.452;2023-04-03T09:39:11;5.60;99.90
30473;DHT22;17263;48.160;11.452;2023-04-03T09:41:38;5.70;99.90
30473;DHT22;17263;48.160;11.452;2023-04-03T09:44:21;5.80;99.90
30473;DHT22;17263;48.160;11.452;2023-04-03T09:46:47;5.90;99.90
30473;DHT22;17263;48.160;11.452;2023-04-03T09:49:13;6.10;99.90
30473;DHT22;17263;48.160;11.452;2023-04-03T09:51:39;6.20;99.90
30473;DHT22;17263;48.160;11.452;2023-04-03T09:54:29;6.30;99.90
30473;DHT22;17263;48.160;11.452;2023-04-03T09:57:00;6.40;99.90
30473;DHT22;17263;48.160;11.452;2023-04-03T09:59:27;6.40;99.90
30473;DHT22;17263;48.160;11.452;2023-04-03T10:02:41;6.30;99.90
30473;DHT22;17263;48.160;11.452;2023-04-03T10:04:48;6.20;99.90
30473;DHT22;17263;48.160;11.452;2023-04-03T10:07:28;6.10;99.90
30473;DHT22;17263;48.160;11.452;2023-04-03T10:09:59;5.90;99.90
30473;DHT22;17263;48.160;11.452;2023-04-03T10:12:25;5.80;99.90
30473;DHT22;17263;48.160;11.452;2023-04-03T10:14:59;5.90;99.90
30473;DHT22;17263;48.160;11.452;2023-04-03T10:23:02;5.60;99.90
30473;DHT22;17263;48.160;11.452;2023-04-03T10:26:02;5.60;99.90
30473;DHT22;17263;48.160;11.452;2023-04-03T10:29:02;5.50;99.90
30473;DHT22;17263;48.160;11.452;2023-04-03T10:34:39;5.50;99.90
30473;DHT22;17263;48.160;11.452;2023-04-03T10:45:27;5.60;99.90
30473;DHT22;17263;48.160;11.452;2023-04-03T10:51:05;5.80;99.90
30473;DHT22;17263;48.160;11.452;2023-04-03T10:53:55;5.80;99.90
30473;DHT22;17263;48.160;11.452;2023-04-03T10:59:13;5.80;99.90
30473;DHT22;17263;48.160;11.452;2023-04-03T11:01:46;5.70;99.90
30473;DHT22;17263;48.160;11.452;2023-04-03T11:04:16;5.70;99.90
30473;DHT22;17263;48.160;11.452;2023-04-03T11:07:15;5.60;99.90
30473;DHT22;17263;48.160;11.452;2023-04-03T11:09:44;5.60;99.90
30473;DHT22;17263;48.160;11.452;2023-04-03T11:12:36;5.60;99.90
30473;DHT22;17263;48.160;11.452;2023-04-03T11:15:04;5.60;99.90
30473;DHT22;17263;48.160;11.452;2023-04-03T11:17:37;5.60;99.90
30473;DHT22;17263;48.160;11.452;2023-04-03T11:20:20;5.50;99.90
30473;DHT22;17263;48.160;11.452;2023-04-03T11:22:51;5.50;99.90
30473;DHT22;17263;48.160;11.452;2023-04-03T11:25:23;5.40;99.90
30473;DHT22;17263;48.160;11.452;2023-04-03T11:27:57;5.40;99.90
30473;DHT22;17263;48.160;11.452;2023-04-03T11:33:32;5.40;99.90
30473;DHT22;17263;48.160;11.452;2023-04-03T11:36:09;5.40;99.90
30473;DHT22;17263;48.160;11.452;2023-04-03T11:38:41;5.50;99.90
30473;DHT22;17263;48.160;11.452;2023-04-03T11:41:09;5.60;99.90
30473;DHT22;17263;48.160;11.452;2023-04-03T11:46:21;5.50;99.90
30473;DHT22;17263;48.160;11.452;2023-04-03T11:48:49;5.50;99.90
30473;DHT22;17263;48.160;11.452;2023-04-03T11:53:47;5.50;99.90
30473;DHT22;17263;48.160;11.452;2023-04-03T12:01:54;5.60;99.90
30473;DHT22;17263;48.160;11.452;2023-04-03T12:04:22;5.70;99.90
30473;DHT22;17263;48.160;11.452;2023-04-03T12:07:00;5.80;99.90
30473;DHT22;17263;48.160;11.452;2023-04-03T12:09:56;6.00;99.90
30473;DHT22;17263;48.160;11.452;2023-04-03T12:12:36;6.00;99.90
30473;DHT22;17263;48.160;11.452;2023-04-03T12:17:47;6.30;99.90
30473;DHT22;17263;48.160;11.452;2023-04-03T12:20:55;6.50;99.90
30473;DHT22;17263;48.160;11.452;2023-04-03T12:23:33;6.60;99.90
30473;DHT22;17263;48.160;11.452;2023-04-03T12:26:26;6.80;99.90
30473;DHT22;17263;48.160;11.452;2023-04-03T12:28:53;6.90;99.90
30473;DHT22;17263;48.160;11.452;2023-04-03T12:31:22;7.00;99.90
30473;DHT22;17263;48.160;11.452;2023-04-03T12:42:51;7.40;99.90
30473;DHT22;17263;48.160;11.452;2023-04-03T12:45:23;7.40;99.90
30473;DHT22;17263;48.160;11.452;2023-04-03T12:47:51;7.50;99.90
30473;DHT22;17263;48.160;11.452;2023-04-03T12:50:31;7.60;99.90
30473;DHT22;17263;48.160;11.452;2023-04-03T12:53:10;7.70;99.90
30473;DHT22;17263;48.160;11.452;2023-04-03T12:55:37;7.70;99.90
30473;DHT22;17263;48.160;11.452;2023-04-03T12:58:21;7.70;99.90
30473;DHT22;17263;48.160;11.452;2023-04-03T13:01:17;7.70;99.50
30473;DHT22;17263;48.160;11.452;2023-04-03T13:03:46;7.60;99.90
30473;DHT22;17263;48.160;11.452;2023-04-03T13:06:28;7.40;99.90
30473;DHT22;17263;48.160;11.452;2023-04-03T13:08:59;7.20;99.90
30473;DHT22;17263;48.160;11.452;2023-04-03T13:11:30;7.20;99.90
30473;DHT22;17263;48.160;11.452;2023-04-03T13:14:05;7.10;99.90
30473;DHT22;17263;48.160;11.452;2023-04-03T13:16:34;7.00;99.90
30473;DHT22;17263;48.160;11.452;2023-04-03T13:19:00;7.00;99.90
30473;DHT22;17263;48.160;11.452;2023-04-03T13:21:29;7.10;99.90
30473;DHT22;17263;48.160;11.452;2023-04-03T13:24:01;7.10;99.90
30473;DHT22;17263;48.160;11.452;2023-04-03T13:26:31;7.00;99.90
30473;DHT22;17263;48.160;11.452;2023-04-03T13:29:22;6.90;99.30
30473;DHT22;17263;48.160;11.452;2023-04-03T13:31:53;6.60;99.30
30473;DHT22;17263;48.160;11.452;2023-04-03T13:34:20;6.50;99.90
30473;DHT22;17263;48.160;11.452;2023-04-03T13:41:45;6.40;99.90
30473;DHT22;17263;48.160;11.452;2023-04-03T13:44:38;6.40;99.90
30473;DHT22;17263;48.160;11.452;2023-04-03T13:47:17;6.40;99.90
30473;DHT22;17263;48.160;11.452;2023-04-03T13:49:46;6.40;99.90
30473;DHT22;17263;48.160;11.452;2023-04-03T13:52:39;6.50;99.90
30473;DHT22;17263;48.160;11.452;2023-04-03T13:55:21;6.50;99.90
30473;DHT22;17263;48.160;11.452;2023-04-03T13:58:01;6.50;99.90
30473;DHT22;17263;48.160;11.452;2023-04-03T14:00:50;6.50;99.90
30473;DHT22;17263;48.160;11.452;2023-04-03T14:03:30;6.50;99.90
30473;DHT22;17263;48.160;11.452;2023-04-03T14:05:57;6.50;99.90
30473;DHT22;17263;48.160;11.452;2023-04-03T14:08:24;6.60;99.90
30473;DHT22;17263;48.160;11.452;2023-04-03T14:10:50;6.70;99.90
30473;DHT22;17263;48.160;11.452;2023-04-03T14:13:19;6.70;99.90
30473;DHT22;17263;48.160;11.452;2023-04-03T14:15:46;6.70;99.10
30473;DHT22;17263;48.160;11.452;2023-04-03T14:18:20;6.70;99.90
30473;DHT22;17263;48.160;11.452;2023-04-03T14:20:48;6.80;99.40
30473;DHT22;17263;48.160;11.452;2023-04-03T14:23:14;6.70;99.60
30473;DHT22;17263;48.160;11.452;2023-04-03T14:25:41;6.70;99.00
30473;DHT22;17263;48.160;11.452;2023-04-03T14:28:18;6.80;97.80
30473;DHT22;17263;48.160;11.452;2023-04-03T14:30:47;6.70;97.60
30473;DHT22;17263;48.160;11.452;2023-04-03T14:33:17;6.70;97.30
30473;DHT22;17263;48.160;11.452;2023-04-03T14:35:43;6.70;96.20
30473;DHT22;17263;48.160;11.452;2023-04-03T14:38:21;6.70;96.30
30473;DHT22;17263;48.160;11.452;2023-04-03T14:40:48;6.70;95.80
30473;DHT22;17263;48.160;11.452;2023-04-03T14:43:15;6.70;95.70
30473;DHT22;17263;48.160;11.452;2023-04-03T14:45:42;6.80;94.70
30473;DHT22;17263;48.160;11.452;2023-04-03T14:48:17;6.90;93.80
30473;DHT22;17263;48.160;11.452;2023-04-03T14:50:44;6.90;92.60
30473;DHT22;17263;48.160;11.452;2023-04-03T14:53:12;6.90;92.60
30473;DHT22;17263;48.160;11.452;2023-04-03T14:55:46;7.10;93.80
30473;DHT22;17263;48.160;11.452;2023-04-03T14:58:18;7.20;94.00
30473;DHT22;17263;48.160;11.452;2023-04-03T15:00:45;7.40;93.00
30473;DHT22;17263;48.160;11.452;2023-04-03T15:03:19;7.30;92.90
30473;DHT22;17263;48.160;11.452;2023-04-03T15:05:47;7.20;93.50
30473;DHT22;17263;48.160;11.452;2023-04-03T15:08:20;7.10;93.60
30473;DHT22;17263;48.160;11.452;2023-04-03T15:10:47;7.10;93.10
30473;DHT22;17263;48.160;11.452;2023-04-03T15:13:13;7.00;93.40
30473;DHT22;17263;48.160;11.452;2023-04-03T15:15:40;6.90;92.80
30473;DHT22;17263;48.160;11.452;2023-04-03T15:18:09;6.70;92.70
30473;DHT22;17263;48.160;11.452;2023-04-03T15:20:36;6.60;92.60
30473;DHT22;17263;48.160;11.452;2023-04-03T15:23:02;6.50;91.50
30473;DHT22;17263;48.160;11.452;2023-04-03T15:25:29;6.40;91.90
30473;DHT22;17263;48.160;11.452;2023-04-03T15:27:56;6.30;91.40
30473;DHT22;17263;48.160;11.452;2023-04-03T15:30:23;6.20;91.30
30473;DHT22;17263;48.160;11.452;2023-04-03T15:32:50;6.20;91.70
30473;DHT22;17263;48.160;11.452;2023-04-03T15:35:17;6.20;91.70
30473;DHT22;17263;48.160;11.452;2023-04-03T15:37:43;6.20;91.40
30473;DHT22;17263;48.160;11.452;2023-04-03T15:40:10;6.30;91.90
30473;DHT22;17263;48.160;11.452;2023-04-03T15:42:36;6.30;91.10
30473;DHT22;17263;48.160;11.452;2023-04-03T15:45:03;6.40;90.70
30473;DHT22;17263;48.160;11.452;2023-04-03T15:47:29;6.40;90.10
30473;DHT22;17263;48.160;11.452;2023-04-03T15:49:55;6.30;88.90
30473;DHT22;17263;48.160;11.452;2023-04-03T15:52:22;6.30;88.50
30473;DHT22;17263;48.160;11.452;2023-04-03T15:54:48;6.30;87.40
30473;DHT22;17263;48.160;11.452;2023-04-03T15:57:14;6.30;87.70
30473;DHT22;17263;48.160;11.452;2023-04-03T15:59:40;6.20;87.50
30473;DHT22;17263;48.160;11.452;2023-04-03T16:02:07;6.20;90.00
30473;DHT22;17263;48.160;11.452;2023-04-03T16:04:35;6.20;90.40
30473;DHT22;17263;48.160;11.452;2023-04-03T16:07:03;6.20;89.60
30473;DHT22;17263;48.160;11.452;2023-04-03T16:09:29;6.20;89.00
30473;DHT22;17263;48.160;11.452;2023-04-03T16:11:56;6.30;88.40
30473;DHT22;17263;48.160;11.452;2023-04-03T16:14:22;6.20;89.00
30473;DHT22;17263;48.160;11.452;2023-04-03T16:16:48;6.20;87.80
30473;DHT22;17263;48.160;11.452;2023-04-03T16:19:14;6.20;88.30
30473;DHT22;17263;48.160;11.452;2023-04-03T16:21:40;6.20;88.40
30473;DHT22;17263;48.160;11.452;2023-04-03T16:24:06;6.10;87.20
30473;DHT22;17263;48.160;11.452;2023-04-03T16:26:32;6.00;86.50
30473;DHT22;17263;48.160;11.452;2023-04-03T16:28:58;5.90;87.10
30473;DHT22;17263;48.160;11.452;2023-04-03T16:31:25;5.80;88.70
30473;DHT22;17263;48.160;11.452;2023-04-03T16:33:51;5.80;89.20
30473;DHT22;17263;48.160;11.452;2023-04-03T16:36:17;5.70;89.40
30473;DHT22;17263;48.160;11.452;2023-04-03T16:38:43;5.60;89.80
30473;DHT22;17263;48.160;11.452;2023-04-03T16:41:10;5.50;90.10
30473;DHT22;17263;48.160;11.452;2023-04-03T16:43:36;5.50;89.80
30473;DHT22;17263;48.160;11.452;2023-04-03T16:46:02;5.40;89.10
30473;DHT22;17263;48.160;11.452;2023-04-03T16:48:29;5.30;90.40